Terminal Aerodrome Forecast
Issued by NWS

Home | Current Version | Previous Version | Text Only | Print | Product List | Glossary On
Versions: 1 2 3 4 5 6 7 8 9 10 11 12 13 14 15 16 17 18 19 20 21 22 23 24 25 26 27 28 29 30 31 32 33 34 35 36 37
598
FTUS46 KOTX 192330
TAFMWH
TAF
KMWH 192330Z 2000/2024 19007KT P6SM -RA OVC050
     FM201000 22009KT P6SM VCSH BKN100
     FM201500 22009KT P6SM FEW250
     FM201700 24014G21KT P6SM SKC=

USA.gov is the U.S. government's official web portal to all federal, state and local government web resources and services.